createdAt,value
2018-08-17T00:00:33.383Z,10.30
2018-08-17T00:01:33.387Z,10.10
2018-08-17T00:02:33.528Z,10.50
2018-08-17T00:03:33.412Z,9.60
2018-08-17T00:04:33.633Z,9.70
2018-08-17T00:05:33.568Z,10.70
2018-08-17T00:06:33.464Z,10.40
2018-08-17T00:07:33.586Z,9.00
2018-08-17T00:08:33.461Z,9.40
2018-08-17T00:09:33.723Z,9.60
2018-08-17T00:10:33.501Z,8.70
2018-08-17T00:11:33.541Z,10.20
2018-08-17T00:12:33.521Z,10.60
2018-08-17T00:13:33.528Z,10.80
2018-08-17T00:14:33.668Z,10.20
2018-08-17T00:15:33.747Z,9.40
2018-08-17T00:16:33.689Z,9.90
2018-08-17T00:17:33.697Z,8.60
2018-08-17T00:18:33.716Z,8.90
2018-08-17T00:19:33.599Z,9.10
2018-08-17T00:20:33.863Z,7.00
2018-08-17T00:21:33.624Z,7.90
2018-08-17T00:22:33.645Z,8.30
2018-08-17T00:23:33.767Z,8.30
2018-08-17T00:24:33.777Z,6.70
2018-08-17T00:25:33.877Z,6.50
2018-08-17T00:26:33.676Z,6.20
2018-08-17T00:27:33.716Z,5.50
2018-08-17T00:28:33.709Z,5.40
2018-08-17T00:29:33.826Z,5.90
2018-08-17T00:30:33.920Z,6.70
2018-08-17T00:31:33.725Z,6.40
2018-08-17T00:32:33.867Z,5.60
2018-08-17T00:33:33.875Z,5.40
2018-08-17T00:34:33.883Z,4.50
2018-08-17T00:35:34.195Z,5.10
2018-08-17T00:36:33.785Z,5.60
2018-08-17T00:37:33.791Z,5.60
2018-08-17T00:38:33.928Z,4.80
2018-08-17T00:39:33.941Z,4.60
2018-08-17T00:40:34.090Z,5.00
2018-08-17T00:41:33.845Z,5.00
2018-08-17T00:42:33.892Z,6.10
2018-08-17T00:43:33.864Z,5.50
2018-08-17T00:44:33.992Z,6.30
2018-08-17T00:45:34.010Z,6.30
2018-08-17T00:46:34.220Z,6.90
2018-08-17T00:47:33.901Z,6.20
2018-08-17T00:48:34.039Z,5.30
2018-08-17T00:49:33.919Z,5.60
2018-08-17T00:50:33.934Z,6.20
2018-08-17T00:51:34.068Z,6.00
2018-08-17T00:52:34.162Z,6.00
2018-08-17T00:53:33.963Z,6.50
2018-08-17T00:54:34.103Z,6.80
2018-08-17T00:55:34.152Z,6.80
2018-08-17T00:56:34.004Z,6.50
2018-08-17T00:57:34.268Z,7.00
2018-08-17T00:58:34.023Z,6.40
2018-08-17T00:59:34.028Z,6.70
2018-08-17T01:00:34.054Z,7.60
2018-08-17T01:01:34.056Z,8.00
2018-08-17T01:02:34.273Z,7.30
2018-08-17T01:03:34.205Z,7.80
2018-08-17T01:04:34.093Z,8.90
2018-08-17T01:05:34.089Z,9.60
2018-08-17T01:06:34.233Z,8.80
2018-08-17T01:07:34.314Z,9.10
2018-08-17T01:08:34.145Z,8.20
2018-08-17T01:09:34.274Z,7.90
2018-08-17T01:10:34.154Z,8.40
2018-08-17T01:11:34.164Z,8.90
2018-08-17T01:12:34.432Z,9.10
2018-08-17T01:13:34.312Z,10.70
2018-08-17T01:14:34.322Z,6.50
2018-08-17T01:15:34.212Z,6.60
2018-08-17T01:16:34.217Z,5.80
2018-08-17T01:17:34.553Z,7.80
2018-08-17T01:18:34.239Z,8.10
2018-08-17T01:19:34.253Z,6.90
2018-08-17T01:20:34.299Z,9.40
2018-08-17T01:21:34.295Z,7.90
2018-08-17T01:22:34.480Z,8.40
2018-08-17T01:23:34.423Z,7.30
2018-08-17T01:24:34.307Z,6.90
2018-08-17T01:25:34.357Z,6.70
2018-08-17T01:26:34.332Z,6.90
2018-08-17T01:27:34.715Z,6.20
2018-08-17T01:28:34.371Z,6.30
2018-08-17T01:29:34.359Z,7.30
2018-08-17T01:30:34.380Z,7.20
2018-08-17T01:31:34.512Z,7.20
2018-08-17T01:32:34.697Z,7.40
2018-08-17T01:33:34.411Z,7.50
2018-08-17T01:34:34.424Z,6.50
2018-08-17T01:35:34.420Z,7.50
2018-08-17T01:36:34.433Z,7.50
2018-08-17T01:37:34.654Z,7.30
2018-08-17T01:38:34.473Z,8.30
2018-08-17T01:39:34.474Z,8.60
2018-08-17T01:40:34.610Z,7.60
2018-08-17T01:41:34.497Z,8.60
2018-08-17T01:42:34.503Z,8.50
2018-08-17T01:43:34.827Z,9.90
2018-08-17T01:44:34.527Z,9.20
2018-08-17T01:45:34.534Z,10.20
2018-08-17T01:46:34.560Z,10.10
2018-08-17T01:47:34.582Z,9.20
2018-08-17T01:48:34.783Z,8.90
2018-08-17T01:49:34.571Z,9.80
2018-08-17T01:50:34.601Z,10.10
2018-08-17T01:51:34.732Z,9.00
2018-08-17T01:52:34.619Z,6.50
2018-08-17T01:53:34.827Z,6.20
2018-08-17T01:54:34.644Z,8.20
2018-08-17T01:55:34.659Z,6.50
2018-08-17T01:56:34.786Z,7.50
2018-08-17T01:57:34.791Z,6.90
2018-08-17T01:58:34.893Z,8.10
2018-08-17T01:59:34.821Z,7.80
2018-08-17T02:00:34.824Z,8.20
2018-08-17T02:01:34.715Z,8.50
2018-08-17T02:02:34.728Z,9.60
2018-08-17T02:03:35.106Z,9.90
2018-08-17T02:04:34.868Z,10.90
2018-08-17T02:05:34.883Z,7.90
2018-08-17T02:06:34.894Z,7.70
2018-08-17T02:07:34.899Z,10.40
2018-08-17T02:08:35.114Z,8.50
2018-08-17T02:09:34.808Z,7.90
2018-08-17T02:10:34.887Z,8.70
2018-08-17T02:11:34.947Z,8.30
2018-08-17T02:12:34.835Z,8.00
2018-08-17T02:13:34.843Z,8.50
2018-08-17T02:14:35.078Z,12.40
2018-08-17T02:15:34.863Z,7.80
2018-08-17T02:16:34.874Z,9.70
2018-08-17T02:17:34.892Z,8.30
2018-08-17T02:18:35.023Z,8.60
2018-08-17T02:19:35.233Z,9.60
2018-08-17T02:20:34.921Z,11.10
2018-08-17T02:21:34.929Z,11.80
2018-08-17T02:22:34.925Z,8.90
2018-08-17T02:23:35.075Z,10.10
2018-08-17T02:24:35.163Z,10.30
2018-08-17T02:25:34.981Z,10.70
2018-08-17T02:26:35.105Z,12.40
2018-08-17T02:27:35.031Z,11.40
2018-08-17T02:28:35.054Z,11.20
2018-08-17T02:29:35.163Z,11.70
2018-08-17T02:30:35.019Z,10.00
2018-08-17T02:31:35.167Z,11.40
2018-08-17T02:32:35.175Z,13.30
2018-08-17T02:33:35.062Z,12.50
2018-08-17T02:34:35.323Z,10.00
2018-08-17T02:35:35.067Z,9.70
2018-08-17T02:36:35.214Z,10.50
2018-08-17T02:37:35.224Z,10.20
2018-08-17T02:38:35.108Z,9.20
2018-08-17T02:39:35.322Z,9.90
2018-08-17T02:40:35.132Z,12.10
2018-08-17T02:41:35.269Z,10.90
2018-08-17T02:42:35.289Z,9.70
2018-08-17T02:43:35.289Z,9.70
2018-08-17T02:44:35.500Z,12.50
2018-08-17T02:45:35.188Z,10.40
2018-08-17T02:46:35.189Z,9.90
2018-08-17T02:47:35.204Z,9.10
2018-08-17T02:48:35.340Z,9.80
2018-08-17T02:49:35.558Z,9.00
2018-08-17T02:50:35.228Z,12.40
2018-08-17T02:51:35.376Z,11.60
2018-08-17T02:52:35.262Z,9.30
2018-08-17T02:53:35.277Z,9.70
2018-08-17T02:54:35.474Z,11.20
2018-08-17T02:55:35.299Z,10.90
2018-08-17T02:56:35.302Z,10.50
2018-08-17T02:57:35.320Z,8.10
2018-08-17T02:58:35.326Z,9.00
2018-08-17T02:59:35.463Z,11.30
2018-08-17T03:00:35.561Z,10.60
2018-08-17T03:01:35.396Z,9.60
2018-08-17T03:02:35.365Z,12.20
2018-08-17T03:03:35.377Z,9.00
2018-08-17T03:04:35.391Z,11.30
2018-08-17T03:05:35.781Z,13.40
2018-08-17T03:06:35.438Z,10.30
2018-08-17T03:07:35.426Z,10.40
2018-08-17T03:08:35.435Z,13.90
2018-08-17T03:09:35.570Z,9.70
2018-08-17T03:10:35.453Z,13.70
2018-08-17T03:11:35.668Z,11.00
2018-08-17T03:12:35.612Z,12.00
2018-08-17T03:13:35.489Z,10.60
2018-08-17T03:14:35.508Z,9.60
2018-08-17T03:15:35.510Z,8.50
2018-08-17T03:16:35.769Z,9.60
2018-08-17T03:17:35.540Z,8.90
2018-08-17T03:18:35.552Z,9.90
2018-08-17T03:19:35.552Z,9.00
2018-08-17T03:20:35.567Z,8.00
2018-08-17T03:21:35.582Z,9.00
2018-08-17T03:22:35.833Z,9.40
2018-08-17T03:23:35.601Z,12.10
2018-08-17T03:24:35.597Z,10.20
2018-08-17T03:25:35.615Z,10.00
2018-08-17T03:26:35.641Z,11.60
2018-08-17T03:27:35.940Z,12.10
2018-08-17T03:28:35.779Z,11.60
2018-08-17T03:29:35.782Z,11.70
2018-08-17T03:30:35.677Z,13.30
2018-08-17T03:31:35.702Z,12.80
2018-08-17T03:32:35.998Z,10.70
2018-08-17T03:33:35.825Z,13.30
2018-08-17T03:34:35.837Z,16.20
2018-08-17T03:35:35.728Z,12.50
2018-08-17T03:36:35.859Z,10.30
2018-08-17T03:37:36.121Z,12.00
2018-08-17T03:38:35.885Z,14.00
2018-08-17T03:39:35.770Z,9.90
2018-08-17T03:40:35.771Z,13.40
2018-08-17T03:41:35.795Z,15.00
2018-08-17T03:42:36.061Z,11.50
2018-08-17T03:43:35.808Z,16.40
2018-08-17T03:44:35.830Z,15.80
2018-08-17T03:45:35.840Z,14.40
2018-08-17T03:46:35.967Z,13.40
2018-08-17T03:47:36.177Z,15.10
2018-08-17T03:48:35.868Z,15.30
2018-08-17T03:49:35.996Z,13.50
2018-08-17T03:50:35.890Z,11.00
2018-08-17T03:51:35.896Z,14.30
2018-08-17T03:52:36.157Z,12.10
2018-08-17T03:53:36.047Z,12.90
2018-08-17T03:54:35.938Z,17.20
2018-08-17T03:55:35.933Z,12.30
2018-08-17T03:56:35.955Z,14.70
2018-08-17T03:57:36.211Z,15.20
2018-08-17T03:58:35.973Z,13.30
2018-08-17T03:59:36.103Z,13.00
2018-08-17T04:00:36.115Z,19.30
2018-08-17T04:01:36.007Z,15.40
2018-08-17T04:02:36.392Z,16.50
2018-08-17T04:03:36.146Z,14.40
2018-08-17T04:04:36.039Z,12.10
2018-08-17T04:05:36.047Z,13.90
2018-08-17T04:06:36.051Z,13.70
2018-08-17T04:07:36.437Z,18.70
2018-08-17T04:08:36.073Z,16.40
2018-08-17T04:09:36.103Z,15.30
2018-08-17T04:10:36.100Z,21.90
2018-08-17T04:11:36.127Z,18.00
2018-08-17T04:12:36.363Z,14.50
2018-08-17T04:13:36.135Z,17.40
2018-08-17T04:14:36.148Z,12.00
2018-08-17T04:15:36.330Z,17.20
2018-08-17T04:16:36.155Z,15.20
2018-08-17T04:17:36.602Z,16.40
2018-08-17T04:18:36.178Z,15.50
2018-08-17T04:19:36.322Z,21.50
2018-08-17T04:20:36.209Z,15.20
2018-08-17T04:21:36.222Z,16.20
2018-08-17T04:22:36.471Z,12.60
2018-08-17T04:23:36.252Z,16.00
2018-08-17T04:24:36.255Z,17.10
2018-08-17T04:25:36.382Z,18.00
2018-08-17T04:26:36.390Z,13.90
2018-08-17T04:27:36.534Z,17.30
2018-08-17T04:28:36.422Z,20.10
2018-08-17T04:29:36.427Z,14.70
2018-08-17T04:30:36.434Z,15.30
2018-08-17T04:31:36.323Z,15.00
2018-08-17T04:32:36.327Z,15.20
2018-08-17T04:33:36.589Z,15.90
2018-08-17T04:34:36.358Z,20.60
2018-08-17T04:35:36.487Z,14.70
2018-08-17T04:36:36.372Z,17.80
2018-08-17T04:37:36.394Z,13.30
2018-08-17T04:38:36.397Z,15.00
2018-08-17T04:39:36.705Z,20.90
2018-08-17T04:40:36.407Z,15.40
2018-08-17T04:41:36.423Z,13.20
2018-08-17T04:42:36.567Z,17.30
2018-08-17T04:43:36.595Z,17.50
2018-08-17T04:44:36.469Z,15.50
2018-08-17T04:45:36.672Z,12.50
2018-08-17T04:46:36.478Z,19.20
2018-08-17T04:47:36.501Z,18.20
2018-08-17T04:48:36.632Z,16.70
2018-08-17T04:49:36.516Z,13.20
2018-08-17T04:50:36.525Z,18.60
2018-08-17T04:51:36.795Z,17.30
2018-08-17T04:52:36.676Z,17.00
2018-08-17T04:53:36.681Z,13.10
2018-08-17T04:54:36.576Z,16.60
2018-08-17T04:55:36.584Z,13.60
2018-08-17T04:56:36.711Z,13.70
2018-08-17T04:57:36.801Z,15.40
2018-08-17T04:58:36.650Z,17.80
2018-08-17T04:59:36.651Z,17.30
2018-08-17T05:00:36.759Z,16.90
2018-08-17T05:01:36.650Z,15.90
2018-08-17T05:02:36.779Z,17.00
2018-08-17T05:03:36.989Z,17.70
2018-08-17T05:04:36.680Z,16.20
2018-08-17T05:05:36.689Z,18.40
2018-08-17T05:06:36.701Z,15.60
2018-08-17T05:07:36.705Z,19.30
2018-08-17T05:08:36.925Z,20.60
2018-08-17T05:09:36.737Z,18.60
2018-08-17T05:10:36.745Z,18.90
2018-08-17T05:11:36.749Z,18.40
2018-08-17T05:12:36.886Z,11.10
2018-08-17T05:13:37.031Z,13.30
2018-08-17T05:14:36.782Z,17.60
2018-08-17T05:15:36.918Z,15.10
2018-08-17T05:16:36.810Z,16.60
2018-08-17T05:17:36.943Z,17.70
2018-08-17T05:18:37.080Z,17.90
2018-08-17T05:19:36.962Z,17.50
2018-08-17T05:20:36.847Z,14.60
2018-08-17T05:21:36.866Z,18.50
2018-08-17T05:22:36.897Z,15.70
2018-08-17T05:23:37.252Z,18.70
2018-08-17T05:24:36.894Z,16.30
2018-08-17T05:25:36.915Z,17.60
2018-08-17T05:26:36.928Z,13.90
2018-08-17T05:27:37.046Z,14.80
2018-08-17T05:28:37.192Z,16.50
2018-08-17T05:29:36.951Z,17.80
2018-08-17T05:30:36.950Z,17.70
2018-08-17T05:31:36.968Z,19.60
2018-08-17T05:32:37.025Z,16.90
2018-08-17T05:33:37.192Z,17.40
2018-08-17T05:34:37.002Z,13.10
2018-08-17T05:35:37.131Z,15.50
2018-08-17T05:36:37.018Z,18.50
2018-08-17T05:37:37.153Z,15.70
2018-08-17T05:38:37.293Z,16.00
2018-08-17T05:39:37.064Z,16.30
2018-08-17T05:40:37.189Z,14.60
2018-08-17T05:41:37.074Z,15.80
2018-08-17T05:42:37.087Z,19.20
2018-08-17T05:43:37.422Z,16.20
2018-08-17T05:44:37.110Z,17.30
2018-08-17T05:45:37.160Z,15.00
2018-08-17T05:46:37.145Z,14.40
2018-08-17T05:47:37.134Z,17.70
2018-08-17T05:48:37.524Z,12.00
2018-08-17T05:49:37.286Z,16.80
2018-08-17T05:50:37.176Z,16.60
2018-08-17T05:51:37.177Z,17.00
2018-08-17T05:52:37.183Z,16.00
2018-08-17T05:53:37.498Z,14.80
2018-08-17T05:54:37.226Z,16.10
2018-08-17T05:55:37.385Z,20.30
2018-08-17T05:56:37.378Z,11.40
2018-08-17T05:57:37.253Z,21.10
2018-08-17T05:58:37.502Z,18.90
2018-08-17T05:59:37.271Z,14.70
2018-08-17T06:00:37.404Z,15.70
2018-08-17T06:01:37.413Z,19.70
2018-08-17T06:02:37.294Z,15.60
2018-08-17T06:03:37.547Z,14.60
2018-08-17T06:04:37.318Z,17.60
2018-08-17T06:05:37.453Z,18.00
2018-08-17T06:06:37.463Z,17.50
2018-08-17T06:07:37.349Z,11.80
2018-08-17T06:08:37.555Z,15.70
2018-08-17T06:09:37.384Z,18.30
2018-08-17T06:10:37.512Z,14.80
2018-08-17T06:11:37.411Z,19.10
2018-08-17T06:12:37.415Z,13.80
2018-08-17T06:13:37.659Z,18.00
2018-08-17T06:14:37.553Z,13.10
2018-08-17T06:15:37.562Z,14.60
2018-08-17T06:16:37.579Z,17.90
2018-08-17T06:17:37.470Z,18.20
2018-08-17T06:18:37.666Z,18.30
2018-08-17T06:19:37.473Z,12.40
2018-08-17T06:20:37.492Z,13.50
2018-08-17T06:21:37.629Z,10.00
2018-08-17T06:22:37.512Z,11.00
2018-08-17T06:23:37.527Z,10.70
2018-08-17T06:24:37.781Z,14.40
2018-08-17T06:25:37.546Z,11.00
2018-08-17T06:26:37.685Z,12.50
2018-08-17T06:27:37.559Z,14.10
2018-08-17T06:28:37.592Z,8.50
2018-08-17T06:29:37.795Z,16.90
2018-08-17T06:30:37.726Z,11.70
2018-08-17T06:31:37.611Z,15.00
2018-08-17T06:32:37.619Z,10.10
2018-08-17T06:33:37.620Z,8.80
2018-08-17T06:34:37.635Z,11.90
2018-08-17T06:35:37.853Z,15.60
2018-08-17T06:36:37.660Z,12.80
2018-08-17T06:37:37.803Z,10.80
2018-08-17T06:38:37.682Z,11.80
2018-08-17T06:39:37.689Z,8.30
2018-08-17T06:40:37.710Z,12.80
2018-08-17T06:41:38.146Z,10.80
2018-08-17T06:42:37.745Z,6.70
2018-08-17T06:43:37.728Z,9.30
2018-08-17T06:44:37.873Z,11.90
2018-08-17T06:45:37.892Z,13.80
2018-08-17T06:46:37.896Z,10.00
2018-08-17T06:47:38.210Z,8.10
2018-08-17T06:48:37.791Z,11.10
2018-08-17T06:49:37.801Z,10.00
2018-08-17T06:50:37.991Z,8.20
2018-08-17T06:51:37.950Z,15.60
2018-08-17T06:52:37.835Z,11.60
2018-08-17T06:53:38.174Z,12.70
2018-08-17T06:54:37.987Z,10.30
2018-08-17T06:55:37.995Z,11.80
2018-08-17T06:56:38.009Z,9.00
2018-08-17T06:57:37.902Z,7.30
2018-08-17T06:58:37.905Z,10.50
2018-08-17T06:59:38.166Z,10.90
2018-08-17T07:00:37.922Z,11.50
2018-08-17T07:01:38.063Z,9.90
2018-08-17T07:02:38.085Z,8.00
2018-08-17T07:03:38.084Z,12.60
2018-08-17T07:04:38.345Z,13.90
2018-08-17T07:05:37.981Z,13.30
2018-08-17T07:06:38.006Z,12.60
2018-08-17T07:07:38.120Z,12.50
2018-08-17T07:08:38.056Z,10.90
2018-08-17T07:09:38.303Z,12.60
2018-08-17T07:10:38.033Z,13.30
2018-08-17T07:11:38.041Z,12.20
2018-08-17T07:12:38.045Z,8.90
2018-08-17T07:13:38.192Z,9.70
2018-08-17T07:14:38.404Z,12.90
2018-08-17T07:15:38.214Z,10.10
2018-08-17T07:16:38.129Z,15.10
2018-08-17T07:17:38.106Z,17.60
2018-08-17T07:18:38.109Z,14.30
2018-08-17T07:19:38.317Z,12.70
2018-08-17T07:20:38.150Z,12.30
2018-08-17T07:21:38.221Z,9.60
2018-08-17T07:22:38.179Z,12.80
2018-08-17T07:23:38.190Z,15.80
2018-08-17T07:24:38.386Z,14.70
2018-08-17T07:25:38.187Z,10.40
2018-08-17T07:26:38.332Z,12.00
2018-08-17T07:27:38.228Z,12.00
2018-08-17T07:28:38.348Z,15.00
2018-08-17T07:29:38.541Z,9.70
2018-08-17T07:30:38.377Z,12.30
2018-08-17T07:31:38.387Z,11.90
2018-08-17T07:32:38.263Z,12.90
2018-08-17T07:33:38.284Z,14.50
2018-08-17T07:34:38.668Z,10.70
2018-08-17T07:35:38.344Z,10.00
2018-08-17T07:36:38.433Z,10.10
2018-08-17T07:37:38.327Z,15.60
2018-08-17T07:38:38.463Z,17.10
2018-08-17T07:39:38.665Z,11.40
2018-08-17T07:40:38.482Z,9.50
2018-08-17T07:41:38.410Z,10.80
2018-08-17T07:42:38.386Z,11.90
2018-08-17T07:43:38.391Z,14.50
2018-08-17T07:44:38.397Z,14.50
2018-08-17T07:45:38.603Z,15.10
2018-08-17T07:46:38.435Z,10.50
2018-08-17T07:47:38.438Z,13.90
2018-08-17T07:48:38.564Z,13.70
2018-08-17T07:49:38.448Z,18.20
2018-08-17T07:50:38.788Z,14.80
2018-08-17T07:51:38.475Z,11.90
2018-08-17T07:52:38.519Z,13.70
2018-08-17T07:53:38.486Z,13.30
2018-08-17T07:54:38.508Z,12.90
2018-08-17T07:55:38.568Z,14.00
2018-08-17T07:56:38.735Z,14.20
2018-08-17T07:57:38.658Z,14.10
2018-08-17T07:58:38.550Z,11.10
2018-08-17T07:59:38.573Z,13.90
2018-08-17T08:00:38.575Z,13.50
2018-08-17T08:01:38.778Z,15.20
2018-08-17T08:02:38.711Z,14.80
2018-08-17T08:03:38.601Z,12.20
2018-08-17T08:04:38.739Z,13.60
2018-08-17T08:05:38.660Z,19.20
2018-08-17T08:06:38.961Z,13.40
2018-08-17T08:07:38.656Z,14.40
2018-08-17T08:09:38.661Z,16.30
2018-08-17T08:10:38.682Z,19.10
2018-08-17T08:11:39.008Z,18.20
2018-08-17T08:12:38.701Z,14.70
2018-08-17T08:13:38.769Z,15.20
2018-08-17T08:14:38.899Z,11.50
2018-08-17T08:15:38.852Z,15.60
2018-08-17T08:16:38.945Z,15.00
2018-08-17T08:17:38.751Z,11.60
2018-08-17T08:18:38.759Z,12.40
2018-08-17T08:19:38.776Z,14.30
2018-08-17T08:20:38.792Z,12.10
2018-08-17T08:21:38.992Z,13.60
2018-08-17T08:22:38.928Z,15.00
2018-08-17T08:23:38.944Z,11.10
2018-08-17T08:24:38.949Z,12.50
2018-08-17T08:25:38.843Z,8.70
2018-08-17T08:26:38.977Z,12.10
2018-08-17T08:27:39.110Z,8.40
2018-08-17T08:28:38.878Z,13.00
2018-08-17T08:29:38.882Z,12.00
2018-08-17T08:30:38.902Z,10.60
2018-08-17T08:31:38.936Z,9.60
2018-08-17T08:32:38.913Z,10.70
2018-08-17T08:33:39.165Z,10.80
2018-08-17T08:34:38.945Z,10.50
2018-08-17T08:35:39.005Z,11.50
2018-08-17T08:36:38.961Z,12.30
2018-08-17T08:37:39.116Z,8.70
2018-08-17T08:38:39.187Z,11.20
2018-08-17T08:39:39.113Z,10.40
2018-08-17T08:40:39.128Z,7.70
2018-08-17T08:41:39.141Z,10.30
2018-08-17T08:42:39.028Z,10.70
2018-08-17T08:43:39.360Z,12.00
2018-08-17T08:44:39.041Z,10.80
2018-08-17T08:45:39.088Z,8.60
2018-08-17T08:46:39.057Z,10.70
2018-08-17T08:47:39.076Z,10.40
2018-08-17T08:48:39.275Z,10.40
2018-08-17T08:49:39.091Z,13.70
2018-08-17T08:50:39.235Z,9.00
2018-08-17T08:51:39.246Z,6.50
2018-08-17T08:52:39.128Z,11.70
2018-08-17T08:53:39.345Z,11.20
2018-08-17T08:54:39.277Z,9.00
2018-08-17T08:55:39.165Z,9.40
2018-08-17T08:56:39.171Z,8.00
2018-08-17T08:57:39.178Z,9.80
2018-08-17T08:58:39.397Z,10.80
2018-08-17T08:59:39.210Z,10.40
2018-08-17T09:00:39.338Z,12.40
2018-08-17T09:01:39.252Z,9.20
2018-08-17T09:02:39.235Z,12.00
2018-08-17T09:03:39.456Z,10.30
2018-08-17T09:04:39.381Z,7.20
2018-08-17T09:05:39.267Z,12.40
2018-08-17T09:06:39.332Z,9.60
2018-08-17T09:07:39.296Z,9.50
2018-08-17T09:08:39.553Z,9.60
2018-08-17T09:09:39.444Z,10.50
2018-08-17T09:10:39.326Z,9.90
2018-08-17T09:11:39.462Z,11.10
2018-08-17T09:12:39.347Z,10.60
2018-08-17T09:13:39.433Z,7.00
2018-08-17T09:14:39.578Z,8.90
2018-08-17T09:15:39.378Z,8.10
2018-08-17T09:16:39.397Z,8.10
2018-08-17T09:17:39.522Z,8.40
2018-08-17T09:18:39.532Z,8.30
2018-08-17T09:19:39.429Z,12.80
2018-08-17T09:20:39.733Z,7.60
2018-08-17T09:21:39.446Z,9.20
2018-08-17T09:22:39.467Z,11.20
2018-08-17T09:23:39.594Z,13.80
2018-08-17T09:24:39.476Z,11.40
2018-08-17T09:25:39.488Z,12.60
2018-08-17T09:26:39.766Z,9.20
2018-08-17T09:27:39.638Z,12.90
2018-08-17T09:28:39.533Z,12.90
2018-08-17T09:29:39.541Z,13.50
2018-08-17T09:30:39.665Z,14.90
2018-08-17T09:31:39.924Z,11.20
2018-08-17T09:32:39.564Z,14.80
2018-08-17T09:33:39.696Z,10.00
2018-08-17T09:34:39.712Z,11.40
2018-08-17T09:35:39.593Z,13.00
2018-08-17T09:36:39.870Z,14.30
2018-08-17T09:37:39.744Z,13.60
2018-08-17T09:38:39.624Z,14.30
2018-08-17T09:39:39.768Z,12.10
2018-08-17T09:40:39.775Z,12.90
2018-08-17T09:41:39.912Z,11.40
2018-08-17T09:42:39.799Z,15.80
2018-08-17T09:43:39.803Z,10.40
2018-08-17T09:44:39.697Z,13.30
2018-08-17T09:45:39.704Z,13.30
2018-08-17T09:46:40.139Z,10.10
2018-08-17T09:47:39.724Z,13.80
2018-08-17T09:48:39.743Z,12.60
2018-08-17T09:49:39.744Z,13.70
2018-08-17T09:50:39.889Z,14.00
2018-08-17T09:51:39.993Z,18.50
2018-08-17T09:52:39.781Z,12.30
2018-08-17T09:53:39.802Z,14.70
2018-08-17T09:54:39.808Z,12.70
2018-08-17T09:55:39.937Z,19.40
2018-08-17T09:56:40.034Z,12.80
2018-08-17T09:57:39.883Z,14.40
2018-08-17T09:58:39.853Z,14.30
2018-08-17T09:59:39.987Z,9.60
2018-08-17T10:00:39.868Z,16.10
2018-08-17T10:01:40.178Z,17.60
2018-08-17T10:02:40.015Z,18.70
2018-08-17T10:03:39.954Z,16.50
2018-08-17T10:04:39.923Z,12.90
2018-08-17T10:05:40.048Z,10.80
2018-08-17T10:06:40.243Z,13.50
2018-08-17T10:07:39.943Z,14.10
2018-08-17T10:08:40.081Z,15.60
2018-08-17T10:09:40.094Z,13.80
2018-08-17T10:10:39.997Z,20.20
2018-08-17T10:11:40.418Z,11.70
2018-08-17T10:12:40.002Z,12.50
2018-08-17T10:13:40.033Z,19.70
2018-08-17T10:14:40.153Z,14.50
2018-08-17T10:15:40.030Z,15.30
2018-08-17T10:16:40.476Z,14.60
2018-08-17T10:17:40.057Z,15.20
2018-08-17T10:18:40.074Z,11.80
2018-08-17T10:19:40.093Z,13.70
2018-08-17T10:20:40.294Z,15.40
2018-08-17T10:21:40.863Z,12.80
2018-08-17T10:22:40.119Z,15.80
2018-08-17T10:23:40.147Z,13.20
2018-08-17T10:24:40.186Z,16.80
2018-08-17T10:25:40.138Z,15.10
2018-08-17T10:26:40.584Z,18.00
2018-08-17T10:27:40.295Z,14.50
2018-08-17T10:28:40.176Z,15.00
2018-08-17T10:29:40.236Z,16.50
2018-08-17T10:30:40.203Z,17.70
2018-08-17T10:31:40.421Z,15.00
2018-08-17T10:32:40.344Z,15.10
2018-08-17T10:33:40.250Z,14.00
2018-08-17T10:34:40.257Z,15.10
2018-08-17T10:35:40.379Z,16.40
2018-08-17T10:36:40.474Z,20.70
2018-08-17T10:37:40.407Z,18.20
2018-08-17T10:38:40.290Z,16.90
2018-08-17T10:39:40.293Z,20.60
2018-08-17T10:40:40.444Z,16.50
2018-08-17T10:41:40.583Z,18.60
2018-08-17T10:42:40.459Z,16.20
2018-08-17T10:43:40.467Z,17.80
2018-08-17T10:44:40.349Z,20.10
2018-08-17T10:45:40.408Z,19.50
2018-08-17T10:46:40.374Z,19.50
2018-08-17T10:47:40.539Z,20.60
2018-08-17T10:48:40.416Z,19.10
2018-08-17T10:49:40.426Z,18.00
2018-08-17T10:50:40.796Z,19.70
2018-08-17T10:55:49.761Z,22.00
2018-08-17T10:56:49.645Z,24.40
2018-08-17T10:57:49.532Z,18.70
2018-08-17T10:58:49.557Z,22.40
2018-08-17T10:59:49.685Z,22.40
2018-08-17T11:00:49.841Z,23.20
2018-08-17T11:01:49.619Z,22.00
2018-08-17T11:02:49.590Z,24.80
2018-08-17T11:03:49.895Z,20.00
2018-08-17T11:04:49.602Z,21.60
2018-08-17T11:05:49.627Z,24.90
2018-08-17T11:06:49.632Z,17.60
2018-08-17T11:07:49.770Z,20.20
2018-08-17T11:08:49.921Z,23.40
2018-08-17T11:09:49.683Z,19.30
2018-08-17T11:10:49.731Z,23.80
2018-08-17T11:11:49.690Z,24.60
2018-08-17T11:12:49.711Z,24.10
2018-08-17T11:13:49.982Z,20.60
2018-08-17T11:14:49.796Z,19.90
2018-08-17T11:15:49.865Z,19.40
2018-08-17T11:16:49.879Z,25.70
2018-08-17T11:17:49.763Z,23.80
2018-08-17T11:18:50.068Z,19.70
2018-08-17T11:19:49.786Z,21.40
2018-08-17T11:20:49.814Z,22.00
2018-08-17T11:21:49.840Z,22.90
2018-08-17T11:22:49.955Z,28.00
2018-08-17T11:23:50.153Z,19.90
2018-08-17T11:24:49.850Z,25.20
2018-08-17T11:25:49.850Z,26.70
2018-08-17T11:26:49.873Z,19.50
2018-08-17T11:27:49.910Z,19.70
2018-08-17T11:28:50.040Z,24.50
2018-08-17T11:29:49.920Z,25.00
2018-08-17T11:30:49.922Z,18.10
2018-08-17T11:31:50.247Z,20.90
2018-08-17T11:32:49.934Z,19.90
2018-08-17T11:33:49.948Z,21.00
2018-08-17T11:34:49.959Z,22.70
2018-08-17T11:35:50.099Z,24.20
2018-08-17T11:36:50.353Z,21.30
2018-08-17T11:37:49.996Z,18.10
2018-08-17T11:38:50.022Z,20.50
2018-08-17T11:39:50.147Z,20.10
2018-08-17T11:40:50.156Z,19.00
2018-08-17T11:41:50.470Z,18.70
2018-08-17T11:42:50.053Z,17.80
2018-08-17T11:43:50.079Z,20.00
2018-08-17T11:44:50.093Z,15.20
2018-08-17T11:46:50.381Z,11.50
2018-08-17T11:47:50.239Z,14.40
2018-08-17T11:48:50.136Z,12.50
2018-08-17T11:49:50.269Z,14.40
2018-08-17T11:50:50.156Z,13.30
2018-08-17T11:51:50.289Z,14.30
2018-08-17T11:52:50.378Z,13.10
2018-08-17T11:53:50.219Z,14.60
2018-08-17T11:54:50.210Z,13.90
2018-08-17T11:55:50.341Z,12.90
2018-08-17T11:56:50.240Z,12.40
2018-08-17T11:57:50.531Z,12.50
2018-08-17T11:58:50.240Z,14.00
2018-08-17T11:59:50.263Z,14.10
2018-08-17T12:00:50.403Z,13.10
2018-08-17T12:01:50.324Z,13.10
2018-08-17T12:02:50.502Z,12.10
2018-08-17T12:03:50.326Z,9.20
2018-08-17T12:04:50.368Z,11.50
2018-08-17T12:05:50.333Z,10.80
2018-08-17T12:06:50.356Z,11.10
2018-08-17T12:07:50.660Z,9.50
2018-08-17T12:08:50.428Z,13.10
2018-08-17T12:09:50.391Z,12.30
2018-08-17T12:10:50.414Z,10.00
2018-08-17T12:11:50.542Z,11.50
2018-08-17T12:12:50.674Z,10.70
2018-08-17T12:13:50.444Z,10.80
2018-08-17T12:14:50.588Z,12.20
2018-08-17T12:15:50.477Z,14.10
2018-08-17T12:16:50.488Z,12.60
2018-08-17T12:17:50.872Z,10.90
2018-08-17T12:18:50.716Z,11.10
2018-08-17T12:19:50.649Z,11.90
2018-08-17T12:20:50.582Z,11.70
2018-08-17T12:21:50.556Z,14.60
2018-08-17T12:22:50.890Z,11.60
2018-08-17T12:23:50.612Z,10.20
2018-08-17T12:24:50.805Z,9.00
2018-08-17T12:25:50.599Z,13.70
2018-08-17T12:26:50.741Z,12.00
2018-08-17T12:27:51.010Z,9.70
2018-08-17T12:28:50.647Z,8.60
2018-08-17T12:29:50.659Z,9.90
2018-08-17T12:30:50.802Z,7.30
2018-08-17T12:31:50.811Z,10.30
2018-08-17T12:32:51.072Z,12.80
2018-08-17T12:33:50.717Z,12.70
2018-08-17T12:34:50.722Z,8.40
2018-08-17T12:35:50.745Z,9.10
2018-08-17T12:36:50.743Z,6.30
2018-08-17T12:37:51.143Z,8.10
2018-08-17T12:38:50.775Z,7.70
2018-08-17T12:39:50.795Z,10.60
2018-08-17T12:40:50.803Z,8.80
2018-08-17T12:41:50.833Z,8.30
2018-08-17T12:42:51.074Z,7.40
2018-08-17T12:43:50.972Z,7.70
2018-08-17T12:44:50.870Z,5.10
2018-08-17T12:45:50.996Z,8.90
2018-08-17T12:46:50.891Z,4.90
2018-08-17T12:58:51.185Z,7.20
2018-08-17T12:59:51.071Z,9.20
2018-08-17T13:00:51.083Z,5.10
2018-08-17T13:01:51.105Z,3.80
2018-08-17T13:02:51.492Z,8.40
2018-08-17T13:03:51.131Z,4.10
2018-08-17T13:04:51.129Z,6.40
2018-08-17T13:05:51.285Z,3.30
2018-08-17T13:06:51.165Z,4.40
2018-08-17T13:07:51.390Z,4.60
2018-08-17T13:08:51.207Z,3.10
2018-08-17T13:09:51.202Z,3.50
2018-08-17T13:10:51.286Z,2.90
2018-08-17T13:11:51.244Z,2.80
2018-08-17T13:12:51.568Z,2.50
2018-08-17T13:13:51.405Z,2.50
2018-08-17T13:14:51.324Z,2.80
2018-08-17T13:15:51.305Z,2.60
2018-08-17T13:16:51.318Z,4.00
2018-08-17T13:17:51.658Z,3.60